createdAt,value
2018-07-16T09:31:17.460Z,98494.49
2018-07-16T09:33:45.541Z,98494.37
2018-07-16T09:36:13.617Z,98495.09
2018-07-16T09:38:41.664Z,98491.81
2018-07-16T09:41:09.727Z,98494.70
2018-07-16T09:43:37.793Z,98491.52
2018-07-16T09:46:05.873Z,98487.81
2018-07-16T09:48:33.946Z,98492.13
2018-07-16T09:51:02.013Z,98489.00
2018-07-16T09:53:30.171Z,98478.13
2018-07-16T09:55:58.308Z,98486.20
2018-07-16T09:58:26.317Z,98481.28
2018-07-16T10:00:59.752Z,98480.25
2018-07-16T10:03:27.836Z,98477.00
2018-07-16T10:05:55.911Z,98470.28
2018-07-16T10:08:24.028Z,98472.47
2018-07-16T10:10:52.042Z,98469.02
2018-07-16T10:13:20.108Z,98465.86
2018-07-16T10:15:48.245Z,98470.09
2018-07-16T10:18:16.325Z,98463.37
2018-07-16T10:20:44.409Z,98464.56
2018-07-16T10:23:12.465Z,98456.39
2018-07-16T10:25:40.559Z,98464.45
2018-07-16T10:28:08.612Z,98467.46
2018-07-16T10:30:36.684Z,98464.81
2018-07-16T10:33:04.753Z,98471.92
2018-07-16T10:35:32.964Z,98475.37
2018-07-16T10:38:01.044Z,98469.78
2018-07-16T10:40:29.110Z,98467.59
2018-07-16T10:42:57.179Z,98467.81
2018-07-16T10:45:25.264Z,98467.38
2018-07-16T10:47:53.344Z,98463.23
2018-07-16T10:50:21.420Z,98459.84
2018-07-16T10:52:49.507Z,98462.25
2018-07-16T10:55:17.712Z,98459.16
2018-07-16T10:57:45.723Z,98459.81
2018-07-16T11:00:13.794Z,98463.50
2018-07-16T11:02:41.872Z,98460.48
2018-07-16T11:05:09.973Z,98456.66
2018-07-16T11:07:38.060Z,98453.77
2018-07-16T11:10:06.196Z,98449.10
2018-07-16T11:12:34.255Z,98448.05
2018-07-16T11:15:02.377Z,98435.13
2018-07-16T11:17:30.399Z,98437.83
2018-07-16T11:19:58.472Z,98434.00
2018-07-16T11:22:26.515Z,98432.84
2018-07-16T11:24:54.604Z,98430.23
2018-07-16T11:27:22.676Z,98429.50
2018-07-16T11:29:50.748Z,98429.63
2018-07-16T11:32:18.816Z,98422.14
2018-07-16T11:34:47.119Z,98426.17
2018-07-16T11:37:15.207Z,98422.02
2018-07-16T11:39:43.296Z,98420.14
2018-07-16T11:42:11.364Z,98423.55
2018-07-16T11:44:39.438Z,98411.25
2018-07-16T11:47:07.562Z,98405.66
2018-07-16T11:49:35.588Z,98405.74
2018-07-16T11:52:03.636Z,98402.31
2018-07-16T11:54:31.818Z,98397.67
2018-07-16T11:56:59.903Z,98387.31
2018-07-16T11:59:28.117Z,98383.47
2018-07-16T12:01:56.193Z,98388.70
2018-07-16T12:04:24.196Z,98383.99
2018-07-16T12:06:52.256Z,98378.63
2018-07-16T12:09:20.330Z,98375.63
2018-07-16T12:11:48.691Z,98371.44
2018-07-16T12:14:16.768Z,98364.48
2018-07-16T12:16:44.846Z,98363.94
2018-07-16T12:19:12.909Z,98363.13
2018-07-16T12:21:40.980Z,98352.52
2018-07-16T12:24:09.042Z,98354.22
2018-07-16T12:26:37.125Z,98352.86
2018-07-16T12:29:05.204Z,98343.59
2018-07-16T12:31:33.276Z,98346.81
2018-07-16T12:34:01.382Z,98347.25
2018-07-16T12:36:29.636Z,98348.36
2018-07-16T12:38:57.723Z,98342.09
2018-07-16T12:41:25.808Z,98341.98
2018-07-16T12:43:53.876Z,98337.91
2018-07-16T12:46:21.964Z,98338.42
2018-07-16T12:48:50.037Z,98336.79
2018-07-16T12:51:18.136Z,98337.72
2018-07-16T12:53:46.201Z,98328.58
2018-07-16T12:56:14.272Z,98333.63
2018-07-16T12:58:42.379Z,98329.91
2018-07-16T13:01:10.455Z,98320.48
2018-07-16T13:03:38.528Z,98311.94
2018-07-16T13:06:07.140Z,98317.34
2018-07-16T13:08:35.216Z,98315.30
2018-07-16T13:11:03.296Z,98313.38
2018-07-16T13:13:31.361Z,98308.39
2018-07-16T13:15:59.504Z,98299.64
2018-07-16T13:18:27.533Z,98299.19
2018-07-16T13:20:55.640Z,98297.67
2018-07-16T13:23:23.698Z,98301.55
2018-07-16T13:25:51.765Z,98298.28
2018-07-16T13:28:19.815Z,98305.39
2018-07-16T13:30:47.893Z,98298.09
2018-07-16T13:33:15.957Z,98305.15
2018-07-16T13:35:44.025Z,98302.47
2018-07-16T13:38:12.080Z,98300.41
2018-07-16T13:40:40.169Z,98296.84
2018-07-16T13:43:08.231Z,98298.05
2018-07-16T13:45:36.314Z,98298.04
2018-07-16T13:48:04.377Z,98297.86
2018-07-16T13:50:32.935Z,98287.54
2018-07-16T13:53:00.998Z,98285.02
2018-07-16T13:55:29.068Z,98288.75
2018-07-16T13:57:57.168Z,98280.50
2018-07-16T14:00:25.248Z,98287.05
2018-07-16T14:02:53.320Z,98283.63
2018-07-16T14:05:21.391Z,98281.06
2018-07-16T14:07:49.479Z,98281.95
2018-07-16T14:10:17.565Z,98266.64
2018-07-16T14:12:45.635Z,98274.39
2018-07-16T14:15:13.712Z,98268.70
2018-07-16T14:17:41.796Z,98267.64
2018-07-16T14:20:09.859Z,98256.96
2018-07-16T14:22:38.003Z,98260.89
2018-07-16T14:25:06.073Z,98251.26
2018-07-16T14:30:08.997Z,98248.44
2018-07-16T14:32:37.357Z,98247.36
2018-07-16T14:35:05.734Z,98247.62
2018-07-16T14:37:34.013Z,98249.98
2018-07-16T14:40:02.712Z,98239.48
2018-07-16T14:42:31.144Z,98248.59
2018-07-16T14:44:59.299Z,98247.89
2018-07-16T14:47:27.656Z,98242.38
2018-07-16T14:49:56.007Z,98242.38
2018-07-16T14:52:24.112Z,98236.28
2018-07-16T14:54:52.594Z,98236.53
2018-07-16T14:57:20.656Z,98233.13
2018-07-16T14:59:48.712Z,98233.02
2018-07-16T15:02:16.774Z,98230.19
2018-07-16T15:04:45.044Z,98231.53
2018-07-16T15:07:13.116Z,98224.75
2018-07-16T15:09:41.187Z,98231.00
2018-07-16T15:12:09.260Z,98224.39
2018-07-16T15:14:37.332Z,98231.91
2018-07-16T15:17:05.441Z,98227.45
2018-07-16T15:19:33.828Z,98231.71
2018-07-16T15:22:01.917Z,98227.65
2018-07-16T15:24:30.589Z,98227.75
2018-07-16T15:26:58.689Z,98220.59
2018-07-16T15:29:26.754Z,98223.70
2018-07-16T15:31:54.853Z,98225.01
2018-07-16T15:34:23.968Z,98227.56
2018-07-16T15:36:52.062Z,98222.60
2018-07-16T15:39:20.124Z,98226.09
2018-07-16T15:41:48.176Z,98223.52
2018-07-16T15:44:16.248Z,98221.94
2018-07-16T15:46:44.339Z,98218.96
2018-07-16T15:49:12.403Z,98205.38
2018-07-16T15:51:40.485Z,98210.62
2018-07-16T15:54:08.627Z,98211.53
2018-07-16T15:56:37.469Z,98209.19
2018-07-16T15:59:05.557Z,98202.89
2018-07-16T16:01:33.620Z,98205.70
2018-07-16T16:04:01.783Z,98208.84
2018-07-16T16:06:29.839Z,98203.42
2018-07-16T16:08:57.950Z,98199.81
2018-07-16T16:11:26.020Z,98204.39
2018-07-16T16:13:54.108Z,98201.64
2018-07-16T16:16:22.220Z,98204.69
2018-07-16T16:18:50.256Z,98203.38
2018-07-16T16:21:18.316Z,98200.38
2018-07-16T16:23:46.412Z,98199.28
2018-07-16T16:26:14.523Z,98200.69
2018-07-16T16:28:42.540Z,98195.20
2018-07-16T16:31:10.593Z,98196.91
2018-07-16T16:33:38.661Z,98197.69
2018-07-16T16:36:06.784Z,98196.02
2018-07-16T16:38:34.852Z,98197.46
2018-07-16T16:41:02.924Z,98203.66
2018-07-16T16:43:31.010Z,98194.16
2018-07-16T16:45:59.068Z,98197.51
2018-07-16T16:48:27.164Z,98200.73
2018-07-16T16:50:55.250Z,98192.77
2018-07-16T16:53:23.311Z,98199.23
2018-07-16T16:55:51.394Z,98197.28
2018-07-16T16:58:19.498Z,98191.97
2018-07-16T17:00:47.581Z,98191.00
2018-07-16T17:03:15.672Z,98195.30
2018-07-16T17:05:44.015Z,98192.03
2018-07-16T17:08:12.092Z,98199.16
2018-07-16T17:10:40.165Z,98189.54
2018-07-16T17:22:54.377Z,98190.38
2018-07-16T17:25:22.632Z,98193.61
2018-07-16T17:27:50.682Z,98193.00
2018-07-16T17:30:18.773Z,98193.16
2018-07-16T17:32:46.846Z,98193.06
2018-07-16T17:35:14.917Z,98193.23
2018-07-16T17:37:43.924Z,98197.63
2018-07-16T17:40:12.001Z,98197.53
2018-07-16T17:42:40.067Z,98200.31
2018-07-16T17:45:08.141Z,98207.42
2018-07-16T17:47:36.200Z,98201.38
2018-07-16T17:50:04.272Z,98195.34
2018-07-16T17:52:33.337Z,98196.59
2018-07-16T17:55:01.408Z,98197.02
2018-07-16T17:57:29.485Z,98202.23
2018-07-16T17:59:57.553Z,98199.05
2018-07-16T18:02:25.620Z,98201.84
2018-07-16T18:04:53.680Z,98202.68
2018-07-16T18:07:22.497Z,98201.41
2018-07-16T18:09:52.084Z,98201.83
2018-07-16T18:12:20.396Z,98204.08
2018-07-16T18:14:48.478Z,98208.89
2018-07-16T18:17:16.548Z,98207.12
2018-07-16T18:19:44.623Z,98216.14
2018-07-16T18:22:12.688Z,98213.23
2018-07-16T18:24:41.154Z,98210.64
2018-07-16T18:27:09.222Z,98216.27
2018-07-16T18:29:37.289Z,98213.91
2018-07-16T18:32:05.359Z,98225.00
2018-07-16T18:34:33.406Z,98217.81
2018-07-16T18:37:01.543Z,98221.07
2018-07-16T18:39:29.528Z,98221.12
2018-07-16T18:41:57.581Z,98217.84
2018-07-16T18:44:25.648Z,98224.89
2018-07-16T18:46:53.745Z,98223.98
2018-07-16T18:49:21.850Z,98230.59
2018-07-16T18:51:49.901Z,98233.52
2018-07-16T18:54:17.964Z,98236.75
2018-07-16T18:56:46.034Z,98239.31
2018-07-16T18:59:14.104Z,98243.91
2018-07-16T19:01:42.188Z,98253.11
2018-07-16T19:04:10.249Z,98257.14
2018-07-16T19:06:39.676Z,98262.44
2018-07-16T19:09:08.218Z,98266.98
2018-07-16T19:11:36.283Z,98271.56
2018-07-16T19:14:04.355Z,98276.31
2018-07-16T19:16:32.454Z,98280.85
2018-07-16T19:19:00.520Z,98278.44
2018-07-16T19:21:28.584Z,98272.53
2018-07-16T19:23:56.648Z,98275.70
2018-07-16T19:26:24.731Z,98282.92
2018-07-16T19:28:52.801Z,98287.46
2018-07-16T19:31:20.875Z,98287.84
2018-07-16T19:33:48.962Z,98294.47
2018-07-16T19:36:17.149Z,98298.02
2018-07-16T19:38:45.227Z,98301.53
2018-07-16T19:41:13.291Z,98303.60
2018-07-16T19:43:41.782Z,98304.38
2018-07-16T19:46:09.859Z,98313.18
2018-07-16T19:48:37.959Z,98314.30
2018-07-16T19:51:06.075Z,98308.81
2018-07-16T19:53:34.140Z,98317.66
2018-07-16T19:56:02.207Z,98323.85
2018-07-16T19:58:30.311Z,98321.78
2018-07-16T20:00:58.383Z,98325.97
2018-07-16T20:03:26.491Z,98336.05
2018-07-16T20:05:54.548Z,98353.09
2018-07-16T20:08:23.608Z,98352.68
2018-07-16T20:10:51.569Z,98351.96
2018-07-16T20:13:19.691Z,98347.64
2018-07-16T20:15:47.898Z,98355.77
2018-07-16T20:20:54.896Z,98367.65
2018-07-16T20:23:22.904Z,98361.31
2018-07-16T20:25:51.864Z,98363.47
2018-07-16T20:28:19.931Z,98361.69
2018-07-16T20:30:48.418Z,98360.97
2018-07-16T20:33:16.487Z,98365.20
2018-07-16T20:35:44.984Z,98359.16
2018-07-16T20:38:13.095Z,98359.38
2018-07-16T20:40:41.177Z,98362.56
2018-07-16T20:43:09.285Z,98361.45
2018-07-16T20:45:37.348Z,98359.45
2018-07-16T20:48:05.470Z,98360.22
2018-07-16T20:50:33.544Z,98356.20
2018-07-16T20:53:01.804Z,98359.20
2018-07-16T20:55:30.814Z,98366.63
2018-07-16T20:57:59.180Z,98368.30
2018-07-16T21:00:27.317Z,98370.36
2018-07-16T21:02:55.515Z,98374.38
2018-07-16T21:05:23.600Z,98366.34
2018-07-16T21:07:51.729Z,98361.84
2018-07-16T21:10:19.761Z,98361.75
2018-07-16T21:12:47.839Z,98359.89
2018-07-16T21:15:16.138Z,98372.14
2018-07-16T21:17:44.205Z,98367.20
2018-07-16T21:20:13.049Z,98368.86
2018-07-16T21:22:41.325Z,98374.54
2018-07-16T21:25:10.523Z,98372.74
2018-07-16T21:27:38.604Z,98369.67
2018-07-16T21:30:06.703Z,98370.37
2018-07-16T21:32:34.782Z,98367.69
2018-07-16T21:35:02.981Z,98372.02
2018-07-16T21:37:31.042Z,98371.72
2018-07-16T21:39:59.169Z,98378.19
2018-07-16T21:42:27.316Z,98376.13
2018-07-16T21:44:55.401Z,98376.13
2018-07-16T21:47:23.492Z,98369.45
2018-07-16T21:49:51.637Z,98378.20
2018-07-16T21:52:19.731Z,98376.20
2018-07-16T21:54:47.885Z,98379.39
2018-07-16T21:57:15.976Z,98378.77
2018-07-16T22:13:09.121Z,98376.50
2018-07-16T22:15:37.192Z,98378.43
2018-07-16T22:18:05.252Z,98381.82
2018-07-16T22:20:33.322Z,98381.33
2018-07-16T22:23:01.393Z,98384.30
2018-07-16T22:25:29.465Z,98382.35
2018-07-16T22:27:57.518Z,98385.30
2018-07-16T22:30:25.593Z,98385.92
2018-07-16T22:32:53.668Z,98386.00
2018-07-16T22:35:21.739Z,98387.41
2018-07-16T22:37:49.827Z,98386.28
2018-07-16T22:40:18.140Z,98391.20
2018-07-16T22:42:46.203Z,98399.77
2018-07-16T22:45:14.286Z,98400.45
2018-07-16T22:47:42.355Z,98399.43
2018-07-16T22:50:10.442Z,98400.09
2018-07-16T22:52:38.536Z,98395.78
2018-07-16T22:55:06.640Z,98397.12
2018-07-16T22:57:34.720Z,98403.23
2018-07-16T23:00:02.792Z,98402.29
2018-07-16T23:02:31.175Z,98407.25
2018-07-16T23:04:59.244Z,98419.09
2018-07-16T23:07:27.322Z,98416.41
2018-07-16T23:09:55.409Z,98412.28
2018-07-16T23:12:23.484Z,98413.04
2018-07-16T23:14:51.582Z,98417.37
2018-07-16T23:17:20.348Z,98419.14
2018-07-16T23:19:48.430Z,98419.17
2018-07-16T23:22:16.500Z,98427.16
2018-07-16T23:24:44.740Z,98420.30
2018-07-16T23:27:12.820Z,98421.53
2018-07-16T23:29:40.884Z,98422.09
2018-07-16T23:32:08.983Z,98425.45
2018-07-16T23:34:37.061Z,98430.32
2018-07-16T23:37:05.154Z,98431.87
2018-07-16T23:39:33.231Z,98439.08
2018-07-16T23:42:01.326Z,98434.44
2018-07-16T23:44:29.398Z,98438.43
2018-07-16T23:46:57.471Z,98441.20
2018-07-16T23:49:25.545Z,98435.30
2018-07-16T23:51:53.613Z,98431.70
2018-07-16T23:54:22.732Z,98436.38
2018-07-16T23:56:50.788Z,98437.99
2018-07-16T23:59:18.893Z,98436.67
